Terminal Aerodrome Forecast
Issued by NWS

Home | Current Version | Previous Version | Text Only | Print | Product List | Glossary On
Versions: 1 2 3 4 5 6 7 8 9 10 11 12 13 14 15 16 17 18
910
FTUS44 KLIX 041120
TAFMSY
TAF
KMSY 041120Z 0412/0512 36011KT P6SM FEW050 FEW200
     FM042000 33011KT P6SM FEW050 FEW250
     FM050400 30008KT P6SM SKC
     FM051100 34009KT P6SM SKC=

USA.gov is the U.S. government's official web portal to all federal, state and local government web resources and services.